createdAt,value
2019-03-23T00:03:58.040Z,6.11
2019-03-23T00:06:30.682Z,6.14
2019-03-23T00:08:54.738Z,6.11
2019-03-23T00:11:22.122Z,6.13
2019-03-23T00:13:49.774Z,6.11
2019-03-23T00:16:17.046Z,6.11
2019-03-23T00:18:44.467Z,6.19
2019-03-23T00:21:11.731Z,6.21
2019-03-23T00:23:39.126Z,6.12
2019-03-23T00:26:06.544Z,6.03
2019-03-23T00:28:34.092Z,5.96
2019-03-23T00:31:01.447Z,5.86
2019-03-23T00:33:28.867Z,5.88
2019-03-23T00:36:15.476Z,5.76
2019-03-23T00:38:43.228Z,5.69
2019-03-23T00:41:31.970Z,5.61
2019-03-23T00:43:59.291Z,5.55
2019-03-23T00:46:26.677Z,5.63
2019-03-23T00:48:53.941Z,5.68
2019-03-23T00:51:21.651Z,5.66
2019-03-23T00:53:49.039Z,5.66
2019-03-23T00:56:16.679Z,5.57
2019-03-23T00:58:44.368Z,5.50
2019-03-23T01:01:11.827Z,5.43
2019-03-23T01:03:39.082Z,5.37
2019-03-23T01:06:06.412Z,5.37
2019-03-23T01:11:22.581Z,5.41
2019-03-23T01:13:49.842Z,5.25
2019-03-23T01:16:17.153Z,5.19
2019-03-23T01:18:44.534Z,5.15
2019-03-23T01:21:11.903Z,5.09
2019-03-23T01:23:39.267Z,5.16
2019-03-23T01:26:06.976Z,4.99
2019-03-23T01:28:34.362Z,4.94
2019-03-23T01:31:02.207Z,4.88
2019-03-23T01:33:29.826Z,4.89
2019-03-23T01:35:57.078Z,4.87
2019-03-23T01:38:24.338Z,4.86
2019-03-23T01:40:51.561Z,4.81
2019-03-23T01:43:18.813Z,4.79
2019-03-23T01:45:46.185Z,4.78
2019-03-23T01:48:13.607Z,4.74
2019-03-23T01:50:40.988Z,4.67
2019-03-23T01:53:08.260Z,4.64
2019-03-23T01:55:36.195Z,4.58
2019-03-23T01:58:03.566Z,4.52
2019-03-23T02:00:31.171Z,4.60
2019-03-23T02:02:58.490Z,4.69
2019-03-23T02:05:26.462Z,4.69
2019-03-23T02:07:53.720Z,4.80
2019-03-23T02:10:21.207Z,4.96
2019-03-23T02:12:48.471Z,5.01
2019-03-23T02:15:15.841Z,5.07
2019-03-23T02:17:43.206Z,5.11
2019-03-23T02:20:10.979Z,5.19
2019-03-23T02:22:38.757Z,5.35
2019-03-23T02:25:06.626Z,5.40
2019-03-23T02:27:34.126Z,5.36
2019-03-23T02:30:01.385Z,5.25
2019-03-23T02:32:28.790Z,5.26
2019-03-23T02:34:56.052Z,5.29
2019-03-23T02:37:28.088Z,5.42
2019-03-23T02:39:52.811Z,5.39
2019-03-23T02:42:20.067Z,5.41
2019-03-23T02:44:47.429Z,5.38
2019-03-23T02:47:14.735Z,5.39
2019-03-23T02:49:42.351Z,5.34
2019-03-23T02:52:09.634Z,5.33
2019-03-23T02:54:37.043Z,5.40
2019-03-23T02:57:04.317Z,5.28
2019-03-23T02:59:31.676Z,5.28
2019-03-23T03:01:59.334Z,5.38
2019-03-23T03:04:26.597Z,5.31
2019-03-23T03:06:54.072Z,5.29
2019-03-23T03:09:21.760Z,5.34
2019-03-23T03:11:49.008Z,5.34
2019-03-23T03:14:16.380Z,5.38
2019-03-23T03:16:43.791Z,5.37
2019-03-23T03:19:11.435Z,5.45
2019-03-23T03:21:38.854Z,5.40
2019-03-23T03:24:06.552Z,5.35
2019-03-23T03:26:33.817Z,5.40
2019-03-23T03:29:01.392Z,5.27
2019-03-23T03:31:28.743Z,5.41
2019-03-23T03:33:56.047Z,5.31
2019-03-23T03:36:23.651Z,5.18
2019-03-23T03:38:51.275Z,5.25
2019-03-23T03:41:18.538Z,5.39
2019-03-23T03:43:45.796Z,5.43
2019-03-23T03:46:13.112Z,5.33
2019-03-23T03:48:40.372Z,5.32
2019-03-23T03:51:07.624Z,5.37
2019-03-23T03:53:35.129Z,5.36
2019-03-23T03:56:02.546Z,5.35
2019-03-23T03:58:30.768Z,5.40
2019-03-23T04:00:58.591Z,5.40
2019-03-23T04:03:38.262Z,5.28
2019-03-23T04:06:05.596Z,5.27
2019-03-23T04:08:32.859Z,5.35
2019-03-23T04:11:00.347Z,5.38
2019-03-23T04:13:27.829Z,5.28
2019-03-23T04:15:55.210Z,5.25
2019-03-23T04:18:22.465Z,5.26
2019-03-23T04:20:49.893Z,5.35
2019-03-23T04:23:17.174Z,5.19
2019-03-23T04:25:44.435Z,5.19
2019-03-23T04:28:11.756Z,5.22
2019-03-23T04:30:39.299Z,5.22
2019-03-23T04:33:06.651Z,5.24
2019-03-23T04:35:34.205Z,5.17
2019-03-23T04:38:01.801Z,5.01
2019-03-23T04:40:29.057Z,4.97
2019-03-23T04:42:56.421Z,5.00
2019-03-23T04:45:30.700Z,5.10
2019-03-23T04:47:57.955Z,4.91
2019-03-23T04:50:25.263Z,4.69
2019-03-23T04:52:52.539Z,4.87
2019-03-23T04:55:19.797Z,4.84
2019-03-23T04:57:47.128Z,4.83
2019-03-23T05:00:14.642Z,4.78
2019-03-23T05:02:41.892Z,4.66
2019-03-23T05:05:09.262Z,4.60
2019-03-23T05:07:36.527Z,4.72
2019-03-23T05:10:04.284Z,4.71
2019-03-23T05:12:31.663Z,4.67
2019-03-23T05:14:59.140Z,4.56
2019-03-23T05:17:26.514Z,4.66
2019-03-23T05:19:53.930Z,4.66
2019-03-23T05:22:21.234Z,4.46
2019-03-23T05:24:48.781Z,4.52
2019-03-23T05:27:16.186Z,4.44
2019-03-23T05:29:44.011Z,4.49
2019-03-23T05:32:11.263Z,4.53
2019-03-23T05:34:38.596Z,4.46
2019-03-23T05:37:05.851Z,4.47
2019-03-23T05:39:33.313Z,4.37
2019-03-23T05:42:00.648Z,4.40
2019-03-23T05:44:27.907Z,4.46
2019-03-23T05:46:55.169Z,4.46
2019-03-23T05:49:22.490Z,4.59
2019-03-23T05:51:50.070Z,4.56
2019-03-23T05:54:17.324Z,4.57
2019-03-23T05:56:44.638Z,4.58
2019-03-23T05:59:11.886Z,4.64
2019-03-23T06:01:39.143Z,4.76
2019-03-23T06:04:06.454Z,4.85
2019-03-23T06:06:33.762Z,4.88
2019-03-23T06:09:01.367Z,4.92
2019-03-23T06:11:28.922Z,5.07
2019-03-23T06:13:56.483Z,5.05
2019-03-23T06:16:23.736Z,5.10
2019-03-23T06:18:51.174Z,4.94
2019-03-23T06:21:18.488Z,5.17
2019-03-23T06:23:45.907Z,5.26
2019-03-23T06:26:13.241Z,5.28
2019-03-23T06:28:40.608Z,5.39
2019-03-23T06:31:07.960Z,5.43
2019-03-23T06:33:35.781Z,5.61
2019-03-23T06:36:03.115Z,5.64
2019-03-23T06:38:30.834Z,5.78
2019-03-23T06:40:58.146Z,5.96
2019-03-23T06:43:25.405Z,5.99
2019-03-23T06:45:52.576Z,6.16
2019-03-23T06:48:20.043Z,6.22
2019-03-23T06:50:47.311Z,6.36
2019-03-23T06:53:14.971Z,6.56
2019-03-23T06:55:42.572Z,6.71
2019-03-23T06:58:09.836Z,6.77
2019-03-23T07:00:37.541Z,6.96
2019-03-23T07:03:05.308Z,7.13
2019-03-23T07:05:32.572Z,7.31
2019-03-23T07:07:59.878Z,7.42
2019-03-23T07:10:27.318Z,7.65
2019-03-23T07:12:54.964Z,7.82
2019-03-23T07:15:22.874Z,8.02
2019-03-23T07:17:50.475Z,8.19
2019-03-23T07:20:17.840Z,8.42
2019-03-23T07:22:45.108Z,8.61
2019-03-23T07:25:12.610Z,8.73
2019-03-23T07:27:39.863Z,8.87
2019-03-23T07:30:09.279Z,9.09
2019-03-23T07:32:36.698Z,9.21
2019-03-23T07:35:04.818Z,9.31
2019-03-23T07:37:32.088Z,9.35
2019-03-23T07:39:59.515Z,9.50
2019-03-23T07:42:26.765Z,9.60
2019-03-23T07:44:54.025Z,9.72
2019-03-23T07:47:21.354Z,9.68
2019-03-23T07:49:48.624Z,9.84
2019-03-23T07:52:15.887Z,9.84
2019-03-23T07:54:43.512Z,9.86
2019-03-23T07:57:10.766Z,9.96
2019-03-23T07:59:38.024Z,10.09
2019-03-23T08:02:05.648Z,10.32
2019-03-23T08:04:32.916Z,10.44
2019-03-23T08:07:00.175Z,10.63
2019-03-23T08:09:37.341Z,10.75
2019-03-23T08:11:57.757Z,10.74
2019-03-23T08:14:25.007Z,10.85
2019-03-23T08:16:52.317Z,10.95
2019-03-23T08:19:19.573Z,11.09
2019-03-23T08:21:47.108Z,11.22
2019-03-23T08:24:14.511Z,11.45
2019-03-23T08:26:41.763Z,11.61
2019-03-23T08:29:09.018Z,11.76
2019-03-23T08:31:36.349Z,11.90
2019-03-23T08:34:03.833Z,12.09
2019-03-23T08:36:31.156Z,12.31
2019-03-23T08:38:59.131Z,12.44
2019-03-23T08:41:26.386Z,12.63
2019-03-23T08:43:53.637Z,12.82
2019-03-23T08:46:20.944Z,12.91
2019-03-23T08:48:48.808Z,13.17
2019-03-23T08:51:16.190Z,13.38
2019-03-23T08:53:43.742Z,13.54
2019-03-23T08:56:11.108Z,13.64
2019-03-23T08:58:37.010Z,13.86
2019-03-23T09:01:04.327Z,13.93
2019-03-23T09:03:31.594Z,14.10
2019-03-23T09:05:58.850Z,14.24
2019-03-23T09:08:26.218Z,14.31
2019-03-23T09:10:53.632Z,14.48
2019-03-23T09:13:20.995Z,14.54
2019-03-23T09:15:48.332Z,14.78
2019-03-23T09:18:15.602Z,14.82
2019-03-23T09:20:43.276Z,15.04
2019-03-23T09:23:10.500Z,15.14
2019-03-23T09:25:38.089Z,15.27
2019-03-23T09:28:05.350Z,15.40
2019-03-23T09:30:32.650Z,15.60
2019-03-23T09:32:59.910Z,15.79
2019-03-23T09:35:27.556Z,15.82
2019-03-23T09:37:54.993Z,15.98
2019-03-23T09:40:22.624Z,16.24
2019-03-23T09:42:50.262Z,16.45
2019-03-23T09:45:17.586Z,16.53
2019-03-23T09:47:45.273Z,16.71
2019-03-23T09:50:12.959Z,16.86
2019-03-23T09:52:40.264Z,16.97
2019-03-23T09:55:07.519Z,17.15
2019-03-23T09:57:34.786Z,17.55
2019-03-23T10:00:02.106Z,17.48
2019-03-23T10:02:29.384Z,17.49
2019-03-23T10:04:56.846Z,17.71
2019-03-23T10:07:24.543Z,17.97
2019-03-23T10:09:51.811Z,17.98
2019-03-23T10:12:19.151Z,18.04
2019-03-23T10:14:46.451Z,18.23
2019-03-23T10:17:13.705Z,18.36
2019-03-23T10:19:41.257Z,18.15
2019-03-23T10:22:08.840Z,18.27
2019-03-23T10:24:36.197Z,18.36
2019-03-23T10:27:03.641Z,18.67
2019-03-23T10:29:30.931Z,18.72
2019-03-23T10:31:58.250Z,18.97
2019-03-23T10:34:25.880Z,18.78
2019-03-23T10:36:53.203Z,18.63
2019-03-23T10:39:20.457Z,18.73
2019-03-23T10:41:48.389Z,18.83
2019-03-23T10:44:15.989Z,18.69
2019-03-23T10:46:43.643Z,18.61
2019-03-23T10:49:11.021Z,18.77
2019-03-23T10:51:38.963Z,19.08
2019-03-23T10:54:06.211Z,19.00
2019-03-23T10:56:34.035Z,19.12
2019-03-23T10:59:01.503Z,19.19
2019-03-23T11:01:28.766Z,19.26
2019-03-23T11:03:56.015Z,19.20
2019-03-23T11:06:23.322Z,19.44
2019-03-23T11:08:50.798Z,19.62
2019-03-23T11:11:18.047Z,19.65
2019-03-23T11:13:45.533Z,19.90
2019-03-23T11:16:12.796Z,19.90
2019-03-23T11:18:40.337Z,19.91
2019-03-23T11:21:07.652Z,19.71
2019-03-23T11:23:35.299Z,19.87
2019-03-23T11:26:02.610Z,19.71
2019-03-23T11:28:29.877Z,19.76
2019-03-23T11:30:57.373Z,19.69
2019-03-23T11:33:24.594Z,20.01
2019-03-23T11:35:57.709Z,19.94
2019-03-23T11:38:21.658Z,20.24
2019-03-23T11:40:54.071Z,20.06
2019-03-23T11:43:18.233Z,20.12
2019-03-23T11:45:45.507Z,19.81
2019-03-23T11:48:13.095Z,19.30
2019-03-23T11:50:40.886Z,19.79
2019-03-23T11:53:08.139Z,19.77
2019-03-23T11:55:35.697Z,19.55
2019-03-23T11:58:03.115Z,19.35
2019-03-23T12:00:30.647Z,19.22
2019-03-23T12:02:57.907Z,18.82
2019-03-23T12:05:25.606Z,19.10
2019-03-23T12:07:52.862Z,19.31
2019-03-23T12:10:20.223Z,19.35
2019-03-23T12:12:47.675Z,19.00
2019-03-23T12:15:15.388Z,18.51
2019-03-23T12:17:42.653Z,18.30
2019-03-23T12:20:50.784Z,18.12
2019-03-23T12:23:18.043Z,17.74
2019-03-23T12:25:45.294Z,17.68
2019-03-23T12:28:12.902Z,17.94
2019-03-23T12:30:40.442Z,17.93
2019-03-23T12:33:07.739Z,17.70
2019-03-23T12:35:35.155Z,17.73
2019-03-23T12:38:02.504Z,17.34
2019-03-23T12:40:49.162Z,17.21
2019-03-23T12:43:16.413Z,16.70
2019-03-23T12:45:43.769Z,16.69
2019-03-23T12:48:11.200Z,16.58
2019-03-23T12:50:38.457Z,16.30
2019-03-23T12:53:05.826Z,15.92
2019-03-23T12:55:33.138Z,15.86
2019-03-23T12:58:00.765Z,15.65
2019-03-23T13:00:28.317Z,15.52
2019-03-23T13:02:55.901Z,15.29
2019-03-23T13:05:23.169Z,15.24
2019-03-23T13:07:50.817Z,15.03
2019-03-23T13:10:18.303Z,14.87
2019-03-23T13:12:45.688Z,14.60
2019-03-23T13:15:13.075Z,14.53
2019-03-23T13:17:41.155Z,14.53
2019-03-23T13:20:08.897Z,14.38
2019-03-23T13:22:36.212Z,14.55
2019-03-23T13:25:04.348Z,14.33
2019-03-23T13:27:31.707Z,14.31
2019-03-23T13:29:58.971Z,14.37
2019-03-23T13:32:26.514Z,14.44
2019-03-23T13:34:53.869Z,14.50
2019-03-23T13:37:21.179Z,14.46
2019-03-23T13:39:48.814Z,14.33
2019-03-23T13:42:16.437Z,14.15
2019-03-23T13:44:43.909Z,14.29
2019-03-23T13:47:11.218Z,14.11
2019-03-23T13:49:38.479Z,14.08
2019-03-23T13:52:06.060Z,13.95
2019-03-23T13:54:33.650Z,13.93
2019-03-23T13:57:01.312Z,13.94
2019-03-23T13:59:28.889Z,13.87
2019-03-23T14:01:56.205Z,13.77
2019-03-23T14:04:23.458Z,13.32
2019-03-23T14:06:50.815Z,13.49
2019-03-23T14:09:18.604Z,13.40
2019-03-23T14:11:54.718Z,13.39
2019-03-23T14:14:15.963Z,13.50
2019-03-23T14:16:43.266Z,13.41
2019-03-23T14:19:10.708Z,13.32
2019-03-23T14:21:38.070Z,13.47
2019-03-23T14:24:05.502Z,13.53
2019-03-23T14:26:33.036Z,13.53
2019-03-23T14:29:00.307Z,13.25
2019-03-23T14:31:27.932Z,13.32
2019-03-23T14:33:55.186Z,13.18
2019-03-23T14:36:22.363Z,13.16
2019-03-23T14:38:49.705Z,13.26
2019-03-23T14:41:17.250Z,13.34
2019-03-23T14:43:44.627Z,13.44
2019-03-23T14:46:12.111Z,13.43
2019-03-23T14:48:39.711Z,13.46
2019-03-23T14:51:06.957Z,13.62
2019-03-23T14:53:34.264Z,13.33
2019-03-23T14:56:01.621Z,13.42
2019-03-23T14:58:29.093Z,13.57
2019-03-23T15:00:56.406Z,13.57
2019-03-23T15:03:23.669Z,13.52
2019-03-23T15:05:50.949Z,13.42
2019-03-23T15:08:18.255Z,13.36
2019-03-23T15:10:46.306Z,13.30
2019-03-23T15:13:13.583Z,13.34
2019-03-23T15:15:41.079Z,13.47
2019-03-23T15:18:08.354Z,13.38
2019-03-23T15:20:35.787Z,13.43
2019-03-23T15:23:03.133Z,13.42
2019-03-23T15:25:30.523Z,13.52
2019-03-23T15:27:58.610Z,13.61
2019-03-23T15:30:25.952Z,13.49
2019-03-23T15:32:53.329Z,13.61
2019-03-23T15:35:20.725Z,13.39
2019-03-23T15:37:48.168Z,13.31
2019-03-23T15:40:15.552Z,13.31
2019-03-23T15:42:42.838Z,13.44
2019-03-23T15:45:10.339Z,13.45
2019-03-23T15:47:37.618Z,13.47
2019-03-23T15:50:05.064Z,13.48
2019-03-23T15:52:32.633Z,13.34
2019-03-23T15:54:59.913Z,13.28
2019-03-23T15:57:27.568Z,13.40
2019-03-23T15:59:55.008Z,13.49
2019-03-23T16:02:22.659Z,13.40
2019-03-23T16:04:49.950Z,13.44
2019-03-23T16:07:17.419Z,13.22
2019-03-23T16:09:44.705Z,13.19
2019-03-23T16:12:12.215Z,13.03
2019-03-23T16:14:39.718Z,13.11
2019-03-23T16:17:07.137Z,13.07
2019-03-23T16:19:34.412Z,12.98
2019-03-23T16:22:01.809Z,12.95
2019-03-23T16:24:29.216Z,13.01
2019-03-23T16:26:56.475Z,13.00
2019-03-23T16:29:23.796Z,12.95
2019-03-23T16:31:51.452Z,12.90
2019-03-23T16:34:18.711Z,12.93
2019-03-23T16:36:46.261Z,12.94
2019-03-23T16:39:13.814Z,12.81
2019-03-23T16:41:41.073Z,12.79
2019-03-23T16:44:08.532Z,12.83
2019-03-23T16:46:36.069Z,12.60
2019-03-23T16:49:03.332Z,12.54
2019-03-23T16:51:30.657Z,12.61
2019-03-23T16:53:58.075Z,12.60
2019-03-23T16:56:25.303Z,12.48
2019-03-23T16:58:52.750Z,12.41
2019-03-23T17:01:20.210Z,12.21
2019-03-23T17:03:47.555Z,12.23
2019-03-23T17:06:15.145Z,12.16
2019-03-23T17:08:42.412Z,12.03
2019-03-23T17:11:10.138Z,11.95
2019-03-23T17:13:37.594Z,11.94
2019-03-23T17:16:04.946Z,11.96
2019-03-23T17:18:32.292Z,11.87
2019-03-23T17:20:59.967Z,11.79
2019-03-23T17:23:27.276Z,11.93
2019-03-23T17:25:54.540Z,11.86
2019-03-23T17:28:21.851Z,11.85
2019-03-23T17:30:49.153Z,11.80
2019-03-23T17:33:16.400Z,11.88
2019-03-23T17:35:44.124Z,11.89
2019-03-23T17:38:11.928Z,11.88
2019-03-23T17:40:39.456Z,11.95
2019-03-23T17:43:06.769Z,11.94
2019-03-23T17:45:34.077Z,11.93
2019-03-23T17:48:01.323Z,12.04
2019-03-23T17:50:28.626Z,12.08
2019-03-23T17:52:55.882Z,11.99
2019-03-23T17:55:23.134Z,12.02
2019-03-23T17:57:50.456Z,12.08
2019-03-23T18:00:17.730Z,12.09
2019-03-23T18:02:45.269Z,12.18
2019-03-23T18:05:12.580Z,12.09
2019-03-23T18:07:39.836Z,12.11
2019-03-23T18:10:48.001Z,12.15
2019-03-23T18:13:16.866Z,12.15
2019-03-23T18:15:44.698Z,12.07
2019-03-23T18:18:12.414Z,12.04
2019-03-23T18:20:39.673Z,12.15
2019-03-23T18:23:06.962Z,12.08
2019-03-23T18:25:34.614Z,12.03
2019-03-23T18:28:01.869Z,12.11
2019-03-23T18:30:48.437Z,12.10
2019-03-23T18:33:15.700Z,12.05
2019-03-23T18:35:43.466Z,11.99
2019-03-23T18:38:10.876Z,11.97
2019-03-23T18:40:38.475Z,12.01
2019-03-23T18:43:06.424Z,12.05
2019-03-23T18:45:34.208Z,12.05
2019-03-23T18:48:01.573Z,11.94
2019-03-23T18:50:29.153Z,12.01
2019-03-23T18:52:56.462Z,11.95
2019-03-23T18:55:24.113Z,12.01
2019-03-23T18:57:51.503Z,12.02
2019-03-23T19:00:44.699Z,12.03
2019-03-23T19:03:12.366Z,11.94
2019-03-23T19:05:39.627Z,12.01
2019-03-23T19:08:06.947Z,11.98
2019-03-23T19:10:34.272Z,11.96
2019-03-23T19:13:01.904Z,11.95
2019-03-23T19:15:29.218Z,11.97
2019-03-23T19:17:56.479Z,11.86
2019-03-23T19:20:23.727Z,11.83
2019-03-23T19:22:51.043Z,11.79
2019-03-23T19:25:18.678Z,11.79
2019-03-23T19:27:49.246Z,11.78
2019-03-23T19:33:12.286Z,11.79
2019-03-23T19:35:39.536Z,11.77
2019-03-23T19:38:07.106Z,11.76
2019-03-23T19:40:34.783Z,11.77
2019-03-23T19:43:02.135Z,11.74
2019-03-23T19:45:29.685Z,11.70
2019-03-23T19:47:57.111Z,11.69
2019-03-23T19:50:24.370Z,11.68
2019-03-23T19:52:51.947Z,11.67
2019-03-23T19:55:19.532Z,11.61
2019-03-23T19:57:46.790Z,11.61
2019-03-23T20:00:14.832Z,11.58
2019-03-23T20:02:42.447Z,11.60
2019-03-23T20:05:10.243Z,11.57
2019-03-23T20:07:37.654Z,11.58
2019-03-23T20:10:05.597Z,11.58
2019-03-23T20:12:33.137Z,11.57
2019-03-23T20:15:00.454Z,11.47
2019-03-23T20:17:27.822Z,11.58
2019-03-23T20:19:55.182Z,11.48
2019-03-23T20:22:22.710Z,11.43
2019-03-23T20:24:50.253Z,11.44
2019-03-23T20:27:17.788Z,11.53
2019-03-23T20:29:56.851Z,11.49
2019-03-23T20:32:24.214Z,11.37
2019-03-23T20:34:51.524Z,11.34
2019-03-23T20:37:19.120Z,11.30
2019-03-23T20:39:46.476Z,11.33
2019-03-23T20:42:13.886Z,11.37
2019-03-23T20:44:41.204Z,11.36
2019-03-23T20:47:08.932Z,11.38
2019-03-23T20:49:36.190Z,11.29
2019-03-23T20:52:03.510Z,11.23
2019-03-23T20:54:31.259Z,11.24
2019-03-23T20:56:58.510Z,11.29
2019-03-23T20:59:26.459Z,11.31
2019-03-23T21:01:54.043Z,11.17
2019-03-23T21:04:21.579Z,11.16
2019-03-23T21:06:48.891Z,11.24
2019-03-23T21:09:16.147Z,11.33
2019-03-23T21:11:43.406Z,11.29
2019-03-23T21:14:19.889Z,11.16
2019-03-23T21:16:39.868Z,11.07
2019-03-23T21:19:07.440Z,11.08
2019-03-23T21:21:34.946Z,10.96
2019-03-23T21:24:02.577Z,11.04
2019-03-23T21:26:29.843Z,10.96
2019-03-23T21:28:57.254Z,10.95
2019-03-23T21:31:24.573Z,10.99
2019-03-23T21:33:51.960Z,10.99
2019-03-23T21:36:19.280Z,10.96
2019-03-23T21:38:46.626Z,10.96
2019-03-23T21:41:14.228Z,10.90
2019-03-23T21:43:41.534Z,10.87
2019-03-23T21:46:08.792Z,10.86
2019-03-23T21:48:36.316Z,10.81
2019-03-23T21:51:03.753Z,10.73
2019-03-23T21:53:31.055Z,10.58
2019-03-23T21:55:58.690Z,10.48
2019-03-23T21:58:26.563Z,10.43
2019-03-23T22:00:53.817Z,10.45
2019-03-23T22:03:21.350Z,10.39
2019-03-23T22:05:48.667Z,10.22
2019-03-23T22:08:15.924Z,10.16
2019-03-23T22:10:43.181Z,10.01
2019-03-23T22:13:10.512Z,9.96
2019-03-23T22:15:38.455Z,10.02
2019-03-23T22:18:05.822Z,10.05
2019-03-23T22:20:33.271Z,9.94
2019-03-23T22:23:00.889Z,9.88
2019-03-23T22:25:47.557Z,9.69
2019-03-23T22:28:15.200Z,9.78
2019-03-23T22:30:43.007Z,9.68
2019-03-23T22:33:10.532Z,9.58
2019-03-23T22:35:38.069Z,9.51
2019-03-23T22:38:05.336Z,9.51
2019-03-23T22:40:32.912Z,9.53
2019-03-23T22:43:00.399Z,9.43
2019-03-23T22:45:27.962Z,9.30
2019-03-23T22:47:55.621Z,9.13
2019-03-23T22:50:23.164Z,9.09
2019-03-23T22:52:50.427Z,9.07
2019-03-23T22:55:17.731Z,8.98
2019-03-23T22:57:45.094Z,9.09
2019-03-23T23:00:53.476Z,8.91
2019-03-23T23:03:20.834Z,8.88
2019-03-23T23:05:48.240Z,8.91
2019-03-23T23:08:15.861Z,8.92
2019-03-23T23:10:43.730Z,9.14
2019-03-23T23:13:10.997Z,9.13
2019-03-23T23:15:38.443Z,9.10
2019-03-23T23:18:05.830Z,9.07
2019-03-23T23:20:33.377Z,9.09
2019-03-23T23:23:00.791Z,9.12
2019-03-23T23:25:28.047Z,9.12
2019-03-23T23:27:55.306Z,8.96
2019-03-23T23:30:22.672Z,8.88
2019-03-23T23:32:50.739Z,8.85
2019-03-23T23:35:18.048Z,8.77
2019-03-23T23:37:45.470Z,8.77
2019-03-23T23:40:12.742Z,8.78
2019-03-23T23:42:40.022Z,8.74
2019-03-23T23:45:48.235Z,8.70
2019-03-23T23:48:15.500Z,8.74
2019-03-23T23:50:43.003Z,8.69
2019-03-23T23:53:10.331Z,8.64
2019-03-23T23:55:37.691Z,8.61
2019-03-23T23:58:05.113Z,8.56
